Time;durP1;ratioP1;P1;durP2;ratioP2;P2;SDS_P1;SDS_P2;PMS_P1;PMS_P2;Temp;Humidity;BMP_temperature;BMP_pressure;BME280_temperature;BME280_humidity;BME280_pressure;Samples;Min_cycle;Max_cycle;Signal;HPM_P1;HPM_P2
2021/11/20 00:00:48;;;;;;;;;15.25;14.25;;;;;12.45;66.14;102885.94;5037053;28;45520;-88
2021/11/20 00:03:13;;;;;;;;;14.75;13.00;;;;;12.45;66.38;102888.56;5037820;28;45384;-88
2021/11/20 00:05:43;;;;;;;;;11.50;11.50;;;;;12.45;66.36;102875.38;5037823;28;45511;-87
2021/11/20 00:08:09;;;;;;;;;12.25;12.25;;;;;12.43;66.21;102881.56;5038412;28;45489;-87
2021/11/20 00:10:38;;;;;;;;;16.50;12.75;;;;;12.44;66.65;102876.28;5037379;28;45389;-88
2021/11/20 00:13:08;;;;;;;;;13.00;12.50;;;;;12.41;66.34;102875.41;5037452;28;45473;-87
2021/11/20 00:15:35;;;;;;;;;12.75;12.75;;;;;12.40;66.45;102873.66;5038818;28;45388;-87
2021/11/20 00:18:02;;;;;;;;;17.00;14.50;;;;;12.40;66.64;102871.00;5041789;28;45618;-86
2021/11/20 00:20:29;;;;;;;;;15.50;13.50;;;;;12.38;66.46;102864.00;5035703;28;45520;-87
2021/11/20 00:22:56;;;;;;;;;18.75;16.00;;;;;12.34;66.75;102864.94;5039297;28;45440;-87
2021/11/20 00:25:24;;;;;;;;;16.50;14.75;;;;;12.37;66.65;102862.25;5039414;28;45557;-85
2021/11/20 00:27:53;;;;;;;;;12.00;12.00;;;;;12.36;66.54;102854.34;5039327;28;45666;-85
2021/11/20 00:30:23;;;;;;;;;13.25;11.00;;;;;12.38;66.72;102853.47;5036453;28;45639;-85
2021/11/20 00:32:57;;;;;;;;;14.00;13.00;;;;;12.35;67.04;102853.47;5037799;28;45644;-84
2021/11/20 00:35:27;;;;;;;;;13.50;13.00;;;;;12.35;66.83;102852.59;5035995;28;46464;-85
2021/11/20 00:37:52;;;;;;;;;17.50;14.75;;;;;12.32;66.95;102842.94;5037122;28;45224;-84
2021/11/20 00:40:26;;;;;;;;;15.00;12.50;;;;;12.34;67.19;102846.47;5038565;28;45482;-87
2021/11/20 00:42:52;;;;;;;;;16.50;13.50;;;;;12.35;67.11;102853.47;5033498;28;45470;-88
2021/11/20 00:45:17;;;;;;;;;21.75;16.25;;;;;12.34;66.73;102851.75;5028640;28;46174;-88
2021/11/20 00:47:43;;;;;;;;;20.50;18.00;;;;;12.32;66.78;102844.72;5035401;28;46459;-87
2021/11/20 00:50:10;;;;;;;;;20.75;16.75;;;;;12.32;66.95;102847.34;5038253;28;45432;-90
2021/11/20 00:52:35;;;;;;;;;16.50;15.75;;;;;12.32;66.70;102837.66;5039157;28;45459;-89
2021/11/20 00:55:01;;;;;;;;;17.00;14.00;;;;;12.34;67.06;102838.56;5038376;28;46167;-87
2021/11/20 00:57:26;;;;;;;;;22.00;16.00;;;;;12.33;67.25;102838.53;5035666;28;45745;-88
2021/11/20 00:59:52;;;;;;;;;16.75;16.75;;;;;12.34;67.04;102835.03;5041145;28;46128;-88
2021/11/20 01:02:17;;;;;;;;;15.75;15.00;;;;;12.35;67.34;102831.50;5038128;28;45410;-90
2021/11/20 01:04:43;;;;;;;;;19.75;17.50;;;;;12.36;67.22;102827.97;5036285;28;46337;-87
2021/11/20 01:07:09;;;;;;;;;17.25;17.00;;;;;12.34;66.83;102822.72;5038035;28;45625;-90
2021/11/20 01:09:41;;;;;;;;;21.25;16.75;;;;;12.36;67.12;102826.22;5038046;28;45215;-90
2021/11/20 01:12:12;;;;;;;;;23.00;19.00;;;;;12.33;67.07;102817.44;5038149;28;45410;-90
2021/11/20 01:14:39;;;;;;;;;25.25;23.00;;;;;12.34;67.07;102820.09;5038765;28;45400;-88
2021/11/20 01:17:07;;;;;;;;;24.75;23.75;;;;;12.33;66.98;102818.31;5038053;28;45508;-91
2021/11/20 01:19:33;;;;;;;;;28.75;24.75;;;;;12.32;67.15;102813.09;5034828;28;45269;-90
2021/11/20 01:22:02;;;;;;;;;24.00;19.75;;;;;12.30;67.00;102815.72;5038029;28;45319;-92
2021/11/20 01:24:28;;;;;;;;;23.25;23.25;;;;;12.32;67.28;102811.28;5041098;28;46581;-88
2021/11/20 01:26:53;;;;;;;;;23.00;20.50;;;;;12.31;67.04;102806.94;5034534;28;45596;-89
2021/11/20 01:29:20;;;;;;;;;25.75;23.25;;;;;12.33;67.09;102813.06;5040578;28;45490;-88
2021/11/20 01:31:48;;;;;;;;;22.50;21.00;;;;;12.32;67.11;102805.16;5040891;28;45699;-89
2021/11/20 01:34:15;;;;;;;;;25.25;22.75;;;;;12.26;66.98;102801.69;5036283;28;47961;-88
2021/11/20 01:36:41;;;;;;;;;19.75;18.00;;;;;12.26;67.46;102806.97;5040083;28;45323;-88
2021/11/20 01:39:14;;;;;;;;;21.25;20.50;;;;;12.25;67.16;102809.59;5042156;28;45366;-86
2021/11/20 01:41:43;;;;;;;;;24.75;20.50;;;;;12.25;67.04;102806.94;5035345;28;45250;-92
2021/11/20 01:44:18;;;;;;;;;19.75;17.00;;;;;12.24;66.96;102808.72;5035042;28;47044;-94
2021/11/20 01:46:48;;;;;;;;;19.25;16.50;;;;;12.25;66.92;102799.03;5040575;28;45536;-93
2021/11/20 01:49:30;;;;;;;;;20.00;19.75;;;;;12.23;67.18;102796.44;5043007;28;45173;-94
2021/11/20 01:52:23;;;;;;;;;14.75;14.50;;;;;12.22;66.72;102796.44;5040656;28;47318;-94
2021/11/20 01:54:58;;;;;;;;;25.25;20.00;;;;;12.22;66.95;102783.25;5027911;28;47434;-92
2021/11/20 01:57:43;;;;;;;;;24.25;18.75;;;;;12.23;66.67;102798.19;5041022;28;45674;-95
2021/11/20 02:00:19;;;;;;;;;24.00;20.00;;;;;12.20;66.81;102791.16;5030798;28;45415;-92
2021/11/20 02:02:50;;;;;;;;;22.25;18.25;;;;;12.18;66.62;102792.94;5040033;28;46183;-91
2021/11/20 02:05:43;;;;;;;;;20.75;18.50;;;;;12.17;67.08;102792.97;5039396;28;47517;-94
2021/11/20 02:08:27;;;;;;;;;20.00;18.00;;;;;12.15;66.68;102788.56;5024003;28;45638;-92
2021/11/20 02:11:01;;;;;;;;;26.50;20.75;;;;;12.13;66.63;102779.78;5040436;28;46064;-96
2021/11/20 02:13:31;;;;;;;;;20.75;20.00;;;;;12.12;66.92;102783.28;5040507;28;47341;-90
2021/11/20 02:16:16;;;;;;;;;23.50;21.25;;;;;12.08;66.64;102780.66;5039643;28;45443;-86
2021/11/20 02:19:00;;;;;;;;;21.75;20.00;;;;;12.07;66.84;102779.81;5035935;28;47018;-86
2021/11/20 02:21:31;;;;;;;;;18.75;16.00;;;;;12.11;66.88;102786.81;5040286;28;45307;-85
2021/11/20 02:23:57;;;;;;;;;18.75;17.50;;;;;12.11;66.89;102783.28;5041197;28;45473;-85
2021/11/20 02:26:22;;;;;;;;;21.75;17.75;;;;;12.10;66.97;102789.47;5039324;28;45360;-87
2021/11/20 02:28:49;;;;;;;;;22.67;18.00;;;;;12.06;66.53;102783.31;5039719;28;45353;-87
2021/11/20 02:31:17;;;;;;;;;17.00;16.50;;;;;12.04;66.50;102778.06;5040496;28;45491;-87
2021/11/20 02:33:45;;;;;;;;;21.25;17.00;;;;;12.00;66.55;102772.84;5037457;28;45548;-88
2021/11/20 02:36:17;;;;;;;;;19.00;15.25;;;;;11.95;66.68;102770.19;5036509;28;46442;-87
2021/11/20 02:38:50;;;;;;;;;17.00;16.50;;;;;11.95;66.95;102771.97;5039707;28;45745;-87
2021/11/20 02:41:18;;;;;;;;;22.75;18.75;;;;;11.94;66.69;102773.75;5037975;28;47074;-87
2021/11/20 02:43:48;;;;;;;;;17.75;14.50;;;;;11.95;66.97;102764.06;5040217;28;45461;-88
2021/11/20 02:46:17;;;;;;;;;17.25;14.00;;;;;11.93;66.81;102751.78;5039044;28;46530;-87
2021/11/20 02:48:42;;;;;;;;;17.00;16.00;;;;;11.97;66.67;102757.03;5038513;28;45385;-90
2021/11/20 02:51:09;;;;;;;;;15.50;13.50;;;;;11.97;66.53;102757.03;5039773;28;45485;-89
2021/11/20 02:53:38;;;;;;;;;15.25;13.75;;;;;11.96;66.55;102760.53;5039976;28;45313;-85
2021/11/20 02:56:07;;;;;;;;;17.25;14.00;;;;;11.95;66.78;102753.53;5037769;28;47693;-86
2021/11/20 02:58:33;;;;;;;;;14.25;13.00;;;;;11.95;66.66;102754.38;5039277;28;45924;-85
2021/11/20 03:01:03;;;;;;;;;15.75;14.00;;;;;11.97;66.60;102755.28;5038905;28;45398;-86
2021/11/20 03:03:28;;;;;;;;;15.75;13.50;;;;;11.97;66.59;102751.75;5040802;28;45408;-86
2021/11/20 03:05:54;;;;;;;;;19.25;15.00;;;;;11.98;66.56;102745.59;5032832;28;46104;-92
2021/11/20 03:08:22;;;;;;;;;14.00;11.50;;;;;11.95;66.37;102748.25;5036178;28;45460;-89
2021/11/20 03:10:52;;;;;;;;;15.50;11.25;;;;;11.93;66.64;102727.19;5039282;28;45421;-89
2021/11/20 03:13:33;;;;;;;;;;;;;;;;;;;;;
2021/11/20 03:15:58;;;;;;;;;15.25;12.75;;;;;11.93;66.65;102730.69;5037629;28;74398;-88
2021/11/20 03:18:30;;;;;;;;;16.75;12.75;;;;;11.96;66.73;102726.28;5046864;28;45361;-91
2021/11/20 03:20:55;;;;;;;;;15.50;14.00;;;;;11.93;66.55;102714.88;5039066;28;45410;-94
2021/11/20 03:23:34;;;;;;;;;16.50;12.50;;;;;11.96;66.54;102718.38;5039075;28;45864;-91
2021/11/20 03:26:00;;;;;;;;;13.25;11.00;;;;;11.95;67.16;102716.66;5037486;28;47275;-87
2021/11/20 03:28:25;;;;;;;;;13.50;13.25;;;;;11.93;66.85;102717.50;5038121;28;45444;-88
2021/11/20 03:30:51;;;;;;;;;13.25;11.50;;;;;11.93;66.70;102709.59;5037830;28;45644;-84
2021/11/20 03:33:17;;;;;;;;;13.50;12.50;;;;;11.90;66.77;102696.44;5033139;28;45992;-84
2021/11/20 03:35:44;;;;;;;;;15.25;11.00;;;;;11.91;66.84;102700.84;5029674;28;45874;-88
2021/11/20 03:38:10;;;;;;;;;13.00;10.50;;;;;11.91;66.94;102700.84;5039423;28;45266;-88
2021/11/20 03:40:36;;;;;;;;;13.75;11.25;;;;;11.91;67.29;102692.94;5039292;28;45497;-88
2021/11/20 03:43:03;;;;;;;;;12.00;10.75;;;;;11.93;66.94;102688.53;5038493;28;45522;-89
2021/11/20 03:45:30;;;;;;;;;14.00;11.75;;;;;11.95;66.83;102691.13;5026769;28;46215;-89
2021/11/20 03:47:55;;;;;;;;;12.50;10.50;;;;;11.93;67.04;102682.38;5038754;28;45316;-90
2021/11/20 03:50:21;;;;;;;;;14.25;11.00;;;;;11.92;67.05;102676.25;5037918;28;45488;-89
2021/11/20 03:52:47;;;;;;;;;12.50;9.25;;;;;11.93;67.21;102677.09;5038917;28;45539;-88
2021/11/20 03:55:20;;;;;;;;;17.50;11.50;;;;;11.92;67.47;102675.38;5037092;28;45436;-89
2021/11/20 03:57:45;;;;;;;;;12.00;10.00;;;;;11.90;67.12;102672.72;5038207;28;45606;-92
2021/11/20 04:00:15;;;;;;;;;8.50;7.00;;;;;11.89;67.12;102671.00;5038006;28;45359;-92
2021/11/20 04:02:43;;;;;;;;;9.00;8.00;;;;;11.87;67.20;102667.50;5037950;28;46089;-94
2021/11/20 04:05:14;;;;;;;;;9.75;8.50;;;;;11.89;67.23;102683.28;5036270;28;47041;-89
2021/11/20 04:07:40;;;;;;;;;4.25;4.25;;;;;11.84;66.69;102669.28;5039940;28;45200;-87
2021/11/20 04:10:08;;;;;;;;;5.00;3.00;;;;;11.86;66.61;102670.13;5038087;28;45282;-86
2021/11/20 04:12:34;;;;;;;;;3.00;3.00;;;;;11.84;66.48;102664.88;5038740;28;45536;-90
2021/11/20 04:14:59;;;;;;;;;3.75;3.25;;;;;11.82;66.46;102658.75;5038424;28;46428;-91
2021/11/20 04:17:26;;;;;;;;;4.75;2.25;;;;;11.80;66.38;102652.63;5042507;28;45302;-90
2021/11/20 04:19:52;;;;;;;;;4.75;4.75;;;;;11.80;66.44;102655.25;5045481;28;45313;-91
2021/11/20 04:22:17;;;;;;;;;3.00;3.00;;;;;11.78;66.40;102644.72;5035553;28;45472;-90
2021/11/20 04:24:43;;;;;;;;;4.00;4.00;;;;;11.75;66.30;102646.50;5038453;28;45571;-90
2021/11/20 04:27:09;;;;;;;;;3.50;3.50;;;;;11.75;66.64;102647.41;5028452;28;45290;-89
2021/11/20 04:29:34;;;;;;;;;3.75;3.75;;;;;11.72;66.26;102636.00;5039016;28;45229;-87
2021/11/20 04:32:00;;;;;;;;;4.25;4.25;;;;;11.70;66.14;102636.88;5036683;28;45178;-87
2021/11/20 04:34:25;;;;;;;;;5.00;5.00;;;;;11.73;66.52;102640.41;5037519;28;45497;-92
2021/11/20 04:36:50;;;;;;;;;4.25;4.25;;;;;11.72;66.41;102646.53;5035646;28;45390;-93
2021/11/20 04:39:16;;;;;;;;;6.75;6.00;;;;;11.70;66.69;102641.28;5035743;28;45225;-92
2021/11/20 04:41:42;;;;;;;;;9.75;6.00;;;;;11.68;66.63;102635.16;5035018;28;46899;-94
2021/11/20 04:44:07;;;;;;;;;8.25;6.50;;;;;11.65;66.58;102625.50;5036223;28;46223;-90
2021/11/20 04:46:34;;;;;;;;;4.50;4.50;;;;;11.67;66.30;102620.22;5039353;28;45341;-89
2021/11/20 04:49:00;;;;;;;;;6.00;4.25;;;;;11.67;66.61;102626.38;5038543;28;45464;-92
2021/11/20 04:51:25;;;;;;;;;6.00;5.75;;;;;11.66;66.81;102621.09;5029830;28;46715;-92
2021/11/20 04:53:52;;;;;;;;;5.25;4.00;;;;;11.65;66.53;102620.25;5032548;28;46271;-87
2021/11/20 04:56:22;;;;;;;;;6.75;6.75;;;;;11.64;66.90;102621.13;5036832;28;45761;-90
2021/11/20 04:58:49;;;;;;;;;3.00;3.00;;;;;11.61;66.70;102615.88;5040082;28;45476;-87
2021/11/20 05:01:18;;;;;;;;;4.00;4.00;;;;;11.65;66.53;102614.09;5040736;28;45361;-87
2021/11/20 05:03:44;;;;;;;;;4.50;3.00;;;;;11.62;66.48;102614.13;5039961;28;45390;-85
2021/11/20 05:06:10;;;;;;;;;5.00;5.00;;;;;11.61;66.65;102607.97;5039173;28;45470;-85
2021/11/20 05:08:36;;;;;;;;;7.00;5.25;;;;;11.63;66.63;102602.72;5057785;28;45179;-86
2021/11/20 05:11:03;;;;;;;;;5.75;5.00;;;;;11.63;66.61;102603.56;5038781;28;45549;-88
2021/11/20 05:13:29;;;;;;;;;6.00;4.00;;;;;11.62;66.64;102603.56;5037801;28;47591;-88
2021/11/20 05:15:56;;;;;;;;;5.50;5.50;;;;;11.63;66.93;102605.34;5040501;28;45621;-87
2021/11/20 05:18:22;;;;;;;;;12.25;10.75;;;;;11.62;66.47;102606.22;5043804;28;45414;-86
2021/11/20 05:20:48;;;;;;;;;8.50;7.00;;;;;11.57;66.73;102606.25;5038221;28;46129;-87
2021/11/20 05:23:16;;;;;;;;;4.00;4.00;;;;;11.57;66.51;102603.63;5041450;28;46327;-89
2021/11/20 05:25:42;;;;;;;;;6.00;4.75;;;;;11.57;66.55;102607.13;5042156;28;45223;-83
2021/11/20 05:28:09;;;;;;;;;6.50;5.75;;;;;11.56;66.55;102597.47;5041592;28;45283;-83
2021/11/20 05:30:37;;;;;;;;;6.75;6.75;;;;;11.57;66.43;102593.97;5039851;28;45378;-82
2021/11/20 05:33:14;;;;;;;;;5.25;5.25;;;;;11.56;66.75;102588.69;5041092;28;45280;-83
2021/11/20 05:35:40;;;;;;;;;6.00;6.00;;;;;11.56;66.29;102594.84;5037314;28;46032;-86
2021/11/20 05:38:06;;;;;;;;;7.25;7.00;;;;;11.59;66.55;102586.03;5041184;28;45572;-86
2021/11/20 05:40:33;;;;;;;;;5.75;4.75;;;;;11.57;66.53;102590.44;5038965;28;45912;-87
2021/11/20 05:43:02;;;;;;;;;8.25;6.75;;;;;11.55;66.64;102593.09;5038724;28;45386;-86
2021/11/20 05:45:31;;;;;;;;;10.00;5.75;;;;;11.54;67.04;102587.81;5040433;28;45517;-87
2021/11/20 05:47:57;;;;;;;;;8.00;6.50;;;;;11.53;66.65;102588.72;5041252;28;45284;-89
2021/11/20 05:50:24;;;;;;;;;8.00;7.00;;;;;11.52;66.58;102592.25;5037281;28;45438;-85
2021/11/20 05:52:51;;;;;;;;;5.00;5.00;;;;;11.53;66.69;102594.00;5041768;28;45448;-87
2021/11/20 05:55:17;;;;;;;;;7.00;6.00;;;;;11.52;66.82;102589.59;5040378;28;45367;-86
2021/11/20 05:57:43;;;;;;;;;8.75;6.75;;;;;11.53;66.96;102588.72;5041247;28;45426;-91
2021/11/20 06:00:14;;;;;;;;;7.75;6.25;;;;;11.54;67.02;102590.47;5041091;28;45271;-83
2021/11/20 06:02:39;;;;;;;;;5.75;5.75;;;;;11.54;66.86;102587.81;5039675;28;45353;-84
2021/11/20 06:05:06;;;;;;;;;5.75;5.00;;;;;11.53;66.96;102584.31;5040188;28;45294;-84
2021/11/20 06:07:32;;;;;;;;;8.00;6.75;;;;;11.54;66.93;102586.06;5041888;28;45306;-87
2021/11/20 06:09:57;;;;;;;;;9.75;6.25;;;;;11.54;67.17;102588.72;5038941;28;46521;-87
2021/11/20 06:12:23;;;;;;;;;7.75;5.75;;;;;11.56;66.99;102586.06;5039192;28;45307;-90
2021/11/20 06:14:49;;;;;;;;;7.50;5.75;;;;;11.53;66.74;102586.09;5041342;28;45651;-90
2021/11/20 06:17:14;;;;;;;;;12.75;7.75;;;;;11.56;66.87;102583.41;5040700;28;45240;-90
2021/11/20 06:19:39;;;;;;;;;7.50;6.50;;;;;11.54;67.05;102577.28;5038315;28;45493;-87
2021/11/20 06:22:05;;;;;;;;;7.50;7.00;;;;;11.55;66.76;102584.31;5040783;28;46306;-87
2021/11/20 06:24:30;;;;;;;;;9.00;9.00;;;;;11.55;66.97;102597.50;5040252;28;45481;-86
2021/11/20 06:26:56;;;;;;;;;10.25;8.00;;;;;11.52;67.04;102586.97;5040700;28;45266;-88
2021/11/20 06:29:23;;;;;;;;;14.00;11.00;;;;;11.51;67.01;102583.47;5041263;28;45496;-90
2021/11/20 06:31:48;;;;;;;;;8.25;8.00;;;;;11.50;67.06;102589.63;5037926;28;47450;-88
2021/11/20 06:34:15;;;;;;;;;11.00;9.00;;;;;11.50;67.34;102588.75;5040593;28;45424;-89
2021/11/20 06:36:41;;;;;;;;;13.25;9.00;;;;;11.52;67.11;102587.84;5038909;28;46066;-91
2021/11/20 06:39:07;;;;;;;;;11.00;9.50;;;;;11.52;67.51;102590.47;5040027;28;45439;-91
2021/11/20 06:41:32;;;;;;;;;10.50;9.00;;;;;11.50;67.36;102594.00;5040530;28;46577;-91
2021/11/20 06:43:58;;;;;;;;;9.50;8.00;;;;;11.51;67.35;102591.34;5040257;28;47237;-90
2021/11/20 06:46:23;;;;;;;;;11.50;10.50;;;;;11.50;67.17;102587.00;5041368;28;45389;-87
2021/11/20 06:48:49;;;;;;;;;9.50;9.50;;;;;11.47;67.20;102579.09;5038031;28;46577;-88
2021/11/20 06:51:16;;;;;;;;;14.50;9.50;;;;;11.48;67.50;102575.59;5039788;28;46579;-90
2021/11/20 06:53:44;;;;;;;;;13.00;10.00;;;;;11.47;67.26;102573.84;5039668;28;45500;-89
2021/11/20 06:56:14;;;;;;;;;13.75;9.75;;;;;11.44;67.55;102574.72;5039805;28;45486;-89
2021/11/20 07:01:28;;;;;;;;;10.25;9.00;;;;;11.44;67.37;102571.22;5012952;28;46023;-90
2021/11/20 07:04:00;;;;;;;;;20.00;14.50;;;;;11.46;67.46;102562.44;5039229;28;45433;-87
2021/11/20 07:06:43;;;;;;;;;13.50;13.25;;;;;11.43;67.31;102554.53;5039423;28;45742;-86
2021/11/20 07:09:09;;;;;;;;;13.75;11.50;;;;;11.43;67.30;102558.97;5035925;28;46105;-88
2021/11/20 07:11:34;;;;;;;;;13.25;11.25;;;;;11.42;67.59;102560.72;5038819;28;48066;-88
2021/11/20 07:14:00;;;;;;;;;12.00;10.50;;;;;11.43;67.53;102557.16;5039989;28;45338;-89
2021/11/20 07:16:28;;;;;;;;;13.00;10.00;;;;;11.42;67.57;102560.72;5040541;28;45231;-88
2021/11/20 07:18:55;;;;;;;;;14.25;14.00;;;;;11.44;67.64;102564.19;5040850;28;45452;-88
2021/11/20 07:21:25;;;;;;;;;15.50;14.50;;;;;11.46;67.45;102570.31;5037471;28;45511;-89
2021/11/20 07:23:53;;;;;;;;;13.25;11.50;;;;;11.45;67.51;102565.09;5038944;28;45457;-85
2021/11/20 07:26:19;;;;;;;;;12.00;12.00;;;;;11.45;67.52;102565.09;5033114;28;45456;-86
2021/11/20 07:28:45;;;;;;;;;12.50;12.00;;;;;11.46;67.41;102567.69;5036217;28;45360;-86
2021/11/20 07:31:10;;;;;;;;;15.75;13.75;;;;;11.44;67.41;102569.47;5038343;28;45448;-86
2021/11/20 07:33:36;;;;;;;;;19.25;16.75;;;;;11.43;67.59;102558.97;5040336;28;45331;-85
2021/11/20 07:36:03;;;;;;;;;18.50;14.25;;;;;11.42;67.48;102568.59;5040001;28;45372;-86
2021/11/20 07:38:35;;;;;;;;;16.25;12.00;;;;;11.43;67.75;102572.13;5035490;28;45221;-85
2021/11/20 07:41:03;;;;;;;;;20.25;14.75;;;;;11.42;67.69;102567.72;5039332;28;46439;-85
2021/11/20 07:43:28;;;;;;;;;14.50;12.50;;;;;11.42;67.76;102570.38;5039209;28;45272;-85
2021/11/20 07:45:54;;;;;;;;;16.75;15.25;;;;;11.41;67.39;102566.84;5037761;28;45399;-89
2021/11/20 07:48:22;;;;;;;;;13.50;12.00;;;;;11.43;67.59;102575.59;5036803;28;45874;-89
2021/11/20 07:50:53;;;;;;;;;18.75;14.00;;;;;11.43;67.33;102575.59;5036363;28;46566;-88
2021/11/20 07:53:19;;;;;;;;;17.50;14.50;;;;;11.42;67.68;102587.03;5036816;28;45767;-88
2021/11/20 07:55:46;;;;;;;;;16.25;13.75;;;;;11.43;67.74;102580.88;5037618;28;45302;-88
2021/11/20 07:58:13;;;;;;;;;13.25;12.50;;;;;11.40;67.44;102583.56;5036862;28;45936;-87
2021/11/20 08:00:40;;;;;;;;;13.75;13.00;;;;;11.40;67.75;102583.56;5039145;28;45468;-88
2021/11/20 08:03:07;;;;;;;;;12.50;12.25;;;;;11.42;67.87;102583.53;5039034;28;45656;-90
2021/11/20 08:05:32;;;;;;;;;16.00;12.50;;;;;11.40;67.94;102580.91;5038392;28;45415;-88
2021/11/20 08:07:57;;;;;;;;;13.25;10.50;;;;;11.38;67.79;102577.41;5036979;28;47403;-88
2021/11/20 08:10:25;;;;;;;;;14.75;14.00;;;;;11.40;68.24;102572.13;5037754;28;48341;-88
2021/11/20 08:12:51;;;;;;;;;14.25;14.00;;;;;11.41;67.65;102579.16;5039631;28;45227;-89
2021/11/20 08:15:17;;;;;;;;;15.50;13.50;;;;;11.42;68.07;102583.53;5037383;28;45511;-88
2021/11/20 08:17:43;;;;;;;;;12.25;11.75;;;;;11.40;67.75;102577.41;5036587;28;45791;-88
2021/11/20 08:20:12;;;;;;;;;15.50;11.50;;;;;11.42;68.22;102581.78;5034220;28;46358;-87
2021/11/20 08:22:38;;;;;;;;;14.25;11.75;;;;;11.39;67.81;102578.28;5036922;28;46225;-86
2021/11/20 08:25:05;;;;;;;;;12.25;10.25;;;;;11.40;68.10;102567.75;5036004;28;45398;-91
2021/11/20 08:27:30;;;;;;;;;12.50;9.75;;;;;11.45;67.75;102571.22;5037659;28;45185;-85
2021/11/20 08:29:56;;;;;;;;;17.00;12.00;;;;;11.46;67.88;102559.78;5034330;28;45266;-91
2021/11/20 08:32:22;;;;;;;;;15.75;13.50;;;;;11.48;68.04;102565.91;5036688;28;45763;-92
2021/11/20 08:34:48;;;;;;;;;18.00;13.50;;;;;11.50;67.65;102562.41;5040415;28;45389;-92
2021/11/20 08:37:15;;;;;;;;;17.25;13.00;;;;;11.50;67.95;102563.28;5034244;28;45984;-96
2021/11/20 08:39:41;;;;;;;;;13.25;12.50;;;;;11.49;67.93;102561.53;5040147;28;48266;-96
2021/11/20 08:42:07;;;;;;;;;20.00;15.00;;;;;11.47;67.89;102558.03;5027059;28;45367;-93
2021/11/20 08:44:33;;;;;;;;;17.25;14.50;;;;;11.51;68.07;102551.00;5043838;28;45391;-94
2021/11/20 08:46:59;;;;;;;;;17.75;15.00;;;;;11.50;68.05;102542.22;5042426;28;46121;-89
2021/11/20 08:49:24;;;;;;;;;18.00;17.50;;;;;11.50;68.09;102542.22;5041195;28;48422;-93
2021/11/20 08:51:52;;;;;;;;;18.75;17.50;;;;;11.51;67.97;102532.56;5041652;28;45516;-94
2021/11/20 08:54:19;;;;;;;;;17.50;15.75;;;;;11.50;67.78;102531.69;5042142;28;45499;-93
2021/11/20 08:56:47;;;;;;;;;15.50;14.25;;;;;11.48;67.69;102534.31;5038933;28;46178;-94
2021/11/20 08:59:15;;;;;;;;;18.00;14.25;;;;;11.47;67.66;102529.97;5038285;28;48041;-94
2021/11/20 09:01:45;;;;;;;;;17.00;17.00;;;;;11.45;67.52;102517.69;5041967;28;45235;-93
2021/11/20 09:04:23;;;;;;;;;15.25;14.50;;;;;11.48;67.72;102531.69;5041876;28;45377;-92
2021/11/20 09:06:51;;;;;;;;;12.25;12.25;;;;;11.49;67.80;102524.66;5038303;28;46716;-93
2021/11/20 09:09:26;;;;;;;;;18.00;13.75;;;;;11.48;67.99;102530.84;5034100;28;46345;-93
2021/11/20 09:11:51;;;;;;;;;19.75;16.00;;;;;11.47;67.95;102523.81;5041425;28;45540;-93
2021/11/20 09:14:28;;;;;;;;;18.25;17.50;;;;;11.48;67.67;102521.16;5041786;28;45175;-91
2021/11/20 09:16:58;;;;;;;;;14.50;13.00;;;;;11.48;67.46;102520.31;5041442;28;45556;-93
2021/11/20 09:19:24;;;;;;;;;17.25;15.50;;;;;11.47;67.61;102505.38;5045034;28;45644;-92
2021/11/20 09:21:50;;;;;;;;;18.00;16.25;;;;;11.46;67.31;102504.50;5038360;28;46113;-92
2021/11/20 09:24:16;;;;;;;;;14.75;14.00;;;;;11.47;67.40;102515.91;5042390;28;45476;-91
2021/11/20 09:26:42;;;;;;;;;15.75;12.00;;;;;11.47;67.59;102516.78;5039124;28;45543;-93
2021/11/20 09:29:12;;;;;;;;;13.25;11.00;;;;;11.45;67.34;102510.66;5040306;28;47370;-86
2021/11/20 09:31:42;;;;;;;;;15.00;13.50;;;;;11.47;67.44;102514.16;5042047;28;45878;-87
2021/11/20 09:34:08;;;;;;;;;20.50;16.50;;;;;11.50;67.63;102512.38;5038564;28;45247;-87
2021/11/20 09:36:34;;;;;;;;;23.50;16.00;;;;;11.47;67.49;102500.09;5037106;28;45549;-88
2021/11/20 09:39:00;;;;;;;;;19.50;14.00;;;;;11.47;67.20;102497.47;5039149;28;48041;-87
2021/11/20 09:41:55;;;;;;;;;20.25;15.50;;;;;11.46;67.27;102491.34;5040474;28;45394;-87
2021/11/20 09:44:21;;;;;;;;;23.00;18.25;;;;;11.46;67.76;102493.97;5026453;28;45474;-87
2021/11/20 09:46:52;;;;;;;;;27.50;24.50;;;;;11.47;66.73;102495.72;5036631;28;45895;-87
2021/11/20 09:49:30;;;;;;;;;28.50;25.00;;;;;11.40;67.06;102490.53;5038143;28;47101;-87
2021/11/20 09:51:56;;;;;;;;;27.50;19.25;;;;;11.40;67.07;102491.41;5036066;28;45814;-87
2021/11/20 09:54:25;;;;;;;;;28.25;25.75;;;;;11.42;67.04;102484.34;5043959;28;45291;-87
2021/11/20 09:56:52;;;;;;;;;28.75;23.50;;;;;11.44;67.23;102490.47;5041567;28;46163;-87
2021/11/20 09:59:46;;;;;;;;;25.50;21.25;;;;;11.44;67.13;102479.06;5040536;28;47130;-87
2021/11/20 10:02:24;;;;;;;;;30.25;26.00;;;;;11.47;67.28;102481.69;5034313;28;45818;-87
2021/11/20 10:05:02;;;;;;;;;26.75;21.00;;;;;11.47;66.96;102477.28;5038590;28;45455;-87
2021/11/20 10:07:42;;;;;;;;;25.25;23.75;;;;;11.49;66.71;102482.53;5031338;28;47040;-88
2021/11/20 10:10:31;;;;;;;;;19.50;16.00;;;;;11.47;66.87;102482.56;5040018;28;47469;-88
2021/11/20 10:13:03;;;;;;;;;22.00;17.75;;;;;11.46;67.14;102483.44;5036518;28;45822;-87
2021/11/20 10:15:32;;;;;;;;;19.25;16.00;;;;;11.48;66.84;102479.03;5041490;28;45464;-87
2021/11/20 10:18:03;;;;;;;;;23.25;20.25;;;;;11.51;66.97;102479.91;5047902;28;45307;-87
2021/11/20 10:20:35;;;;;;;;;19.25;18.25;;;;;11.52;66.90;102471.09;5039888;28;45535;-87
2021/11/20 10:23:04;;;;;;;;;22.75;20.50;;;;;11.51;66.89;102466.75;5040008;28;45885;-87
2021/11/20 10:25:46;;;;;;;;;22.75;20.00;;;;;11.53;66.69;102459.69;5036765;28;45536;-88
2021/11/20 10:28:27;;;;;;;;;20.50;18.50;;;;;11.52;66.96;102455.31;5040345;28;45524;-87
2021/11/20 10:31:21;;;;;;;;;23.25;19.00;;;;;11.53;66.78;102455.28;5029864;28;45425;-87
2021/11/20 10:34:07;;;;;;;;;18.25;17.25;;;;;11.53;66.62;102451.78;5038136;28;45869;-88
2021/11/20 10:36:45;;;;;;;;;22.50;18.75;;;;;11.53;66.74;102446.53;5033328;28;45418;-87
2021/11/20 10:39:33;;;;;;;;;20.00;18.00;;;;;11.55;66.46;102448.25;5037936;28;46029;-87
2021/11/20 10:41:59;;;;;;;;;22.75;21.00;;;;;11.54;66.64;102437.72;5028217;28;47246;-87
2021/11/20 10:44:32;;;;;;;;;33.67;30.00;;;;;11.54;66.91;102435.97;5040488;28;45292;-87
2021/11/20 10:47:07;;;;;;;;;30.00;23.25;;;;;11.56;66.85;102438.56;5038450;28;45398;-87
2021/11/20 10:50:01;;;;;;;;;29.50;24.75;;;;;11.56;66.80;102433.31;5036960;28;45554;-95
2021/11/20 10:52:44;;;;;;;;;29.75;25.25;;;;;11.54;66.71;102422.81;5038805;28;45325;-88
2021/11/20 10:55:19;;;;;;;;;30.00;22.75;;;;;11.54;66.50;102416.66;5038179;28;45451;-88
2021/11/20 10:57:58;;;;;;;;;23.50;20.25;;;;;11.53;66.57;102410.50;5033224;28;45267;-89
2021/11/20 11:01:07;;;;;;;;;21.50;19.50;;;;;11.55;66.66;102403.50;5038384;28;46179;-88
2021/11/20 11:03:40;;;;;;;;;27.50;22.75;;;;;11.58;66.40;102403.44;5040060;28;45516;-88
2021/11/20 11:06:44;;;;;;;;;23.75;19.25;;;;;11.58;66.24;102398.16;5027403;28;45838;-88
2021/11/20 11:09:09;;;;;;;;;21.50;20.25;;;;;11.62;66.30;102392.88;5039318;28;45334;-89
2021/11/20 11:11:39;;;;;;;;;28.25;22.00;;;;;11.63;66.61;102399.91;5039012;28;46094;-89
2021/11/20 11:14:04;;;;;;;;;24.00;20.00;;;;;11.66;66.69;102395.47;5038657;28;45406;-88
2021/11/20 11:16:40;;;;;;;;;25.00;23.00;;;;;11.66;66.53;102392.81;5037881;28;45571;-89
2021/11/20 11:19:19;;;;;;;;;24.00;23.00;;;;;11.68;66.33;102387.56;5045589;28;45285;-89
2021/11/20 11:21:58;;;;;;;;;28.75;25.25;;;;;11.69;66.57;102378.75;5037273;28;47350;-89
2021/11/20 11:24:38;;;;;;;;;28.75;23.25;;;;;11.70;66.43;102375.25;5040425;28;46805;-89
2021/11/20 11:27:14;;;;;;;;;29.25;25.00;;;;;11.70;66.13;102365.56;5038728;28;45528;-89